Terminal Aerodrome Forecast
Issued by NWS

Home | Current Version | Previous Version | Text Only | Print | Product List | Glossary On
Versions: 1 2 3 4 5 6 7 8 9 10 11 12 13 14 15 16 17 18 19 20 21 22 23
000
FTUS43 KDLH 191100
TAFHYR
TAF
KHYR 191135Z 1912/2012 19009KT P6SM OVC080
     FM191500 20014KT P6SM VCSH BKN030
     FM191900 24012KT P6SM VCTS BKN050CB
     FM200000 18008KT P6SM VCTS BKN040CB
     FM200300 18004KT P6SM SCT100=

USA.gov is the U.S. government's official web portal to all federal, state and local government web resources and services.